sensor_id;sensor_type;location;lat;lon;timestamp;P1;durP1;ratioP1;P2;durP2;ratioP2
45784;SDS011;31489;51.404;5.474;2023-04-25T00:00:00;15.70;;;5.03;;
45784;SDS011;31489;51.404;5.474;2023-04-25T00:02:26;15.18;;;5.15;;
45784;SDS011;31489;51.404;5.474;2023-04-25T00:04:53;13.88;;;5.22;;
45784;SDS011;31489;51.404;5.474;2023-04-25T00:07:23;11.85;;;4.57;;
45784;SDS011;31489;51.404;5.474;2023-04-25T00:09:50;14.85;;;5.00;;
45784;SDS011;31489;51.404;5.474;2023-04-25T00:12:15;12.23;;;4.65;;
45784;SDS011;31489;51.404;5.474;2023-04-25T00:14:41;12.52;;;4.65;;
45784;SDS011;31489;51.404;5.474;2023-04-25T00:17:07;15.50;;;5.10;;
45784;SDS011;31489;51.404;5.474;2023-04-25T00:19:33;12.35;;;4.75;;
45784;SDS011;31489;51.404;5.474;2023-04-25T00:21:59;12.80;;;4.63;;
45784;SDS011;31489;51.404;5.474;2023-04-25T00:24:25;13.05;;;5.28;;
45784;SDS011;31489;51.404;5.474;2023-04-25T00:26:51;11.10;;;4.38;;
45784;SDS011;31489;51.404;5.474;2023-04-25T00:29:16;16.08;;;5.53;;
45784;SDS011;31489;51.404;5.474;2023-04-25T00:31:42;12.35;;;4.82;;
45784;SDS011;31489;51.404;5.474;2023-04-25T00:34:08;13.95;;;5.28;;
45784;SDS011;31489;51.404;5.474;2023-04-25T00:36:33;14.00;;;5.22;;
45784;SDS011;31489;51.404;5.474;2023-04-25T00:38:59;13.90;;;4.97;;
45784;SDS011;31489;51.404;5.474;2023-04-25T00:41:25;11.32;;;5.13;;
45784;SDS011;31489;51.404;5.474;2023-04-25T00:43:51;13.85;;;4.47;;
45784;SDS011;31489;51.404;5.474;2023-04-25T00:46:18;13.20;;;4.55;;
45784;SDS011;31489;51.404;5.474;2023-04-25T00:48:44;12.55;;;5.00;;
45784;SDS011;31489;51.404;5.474;2023-04-25T00:51:10;10.20;;;4.65;;
45784;SDS011;31489;51.404;5.474;2023-04-25T00:53:40;16.02;;;5.45;;
45784;SDS011;31489;51.404;5.474;2023-04-25T00:56:06;20.15;;;5.65;;
45784;SDS011;31489;51.404;5.474;2023-04-25T00:58:32;13.75;;;5.10;;
45784;SDS011;31489;51.404;5.474;2023-04-25T01:00:58;13.75;;;5.28;;
45784;SDS011;31489;51.404;5.474;2023-04-25T01:03:27;12.70;;;4.65;;
45784;SDS011;31489;51.404;5.474;2023-04-25T01:05:54;9.25;;;4.47;;
45784;SDS011;31489;51.404;5.474;2023-04-25T01:08:21;17.25;;;5.20;;
45784;SDS011;31489;51.404;5.474;2023-04-25T01:10:50;17.33;;;4.80;;
45784;SDS011;31489;51.404;5.474;2023-04-25T01:13:16;14.32;;;4.68;;
45784;SDS011;31489;51.404;5.474;2023-04-25T01:15:41;12.80;;;4.57;;
45784;SDS011;31489;51.404;5.474;2023-04-25T01:18:07;9.45;;;4.28;;
45784;SDS011;31489;51.404;5.474;2023-04-25T01:20:33;12.55;;;4.63;;
45784;SDS011;31489;51.404;5.474;2023-04-25T01:22:59;12.80;;;4.25;;
45784;SDS011;31489;51.404;5.474;2023-04-25T01:25:25;15.35;;;4.80;;
45784;SDS011;31489;51.404;5.474;2023-04-25T01:27:51;12.82;;;4.22;;
45784;SDS011;31489;51.404;5.474;2023-04-25T01:30:17;16.08;;;4.47;;
45784;SDS011;31489;51.404;5.474;2023-04-25T01:32:42;9.82;;;4.32;;
45784;SDS011;31489;51.404;5.474;2023-04-25T01:35:09;16.25;;;4.47;;
45784;SDS011;31489;51.404;5.474;2023-04-25T01:37:42;12.20;;;4.38;;
45784;SDS011;31489;51.404;5.474;2023-04-25T01:40:09;17.27;;;4.57;;
45784;SDS011;31489;51.404;5.474;2023-04-25T01:42:36;11.55;;;4.65;;
45784;SDS011;31489;51.404;5.474;2023-04-25T01:45:06;13.10;;;4.53;;
45784;SDS011;31489;51.404;5.474;2023-04-25T01:47:33;16.90;;;4.82;;
45784;SDS011;31489;51.404;5.474;2023-04-25T01:50:00;13.60;;;4.68;;
45784;SDS011;31489;51.404;5.474;2023-04-25T01:52:27;16.58;;;4.70;;
45784;SDS011;31489;51.404;5.474;2023-04-25T01:54:52;14.93;;;4.43;;
45784;SDS011;31489;51.404;5.474;2023-04-25T01:57:19;17.65;;;4.57;;
45784;SDS011;31489;51.404;5.474;2023-04-25T01:59:51;10.15;;;5.22;;
45784;SDS011;31489;51.404;5.474;2023-04-25T02:02:19;18.67;;;5.03;;
45784;SDS011;31489;51.404;5.474;2023-04-25T02:04:45;17.77;;;5.43;;
45784;SDS011;31489;51.404;5.474;2023-04-25T02:07:11;10.23;;;4.10;;
45784;SDS011;31489;51.404;5.474;2023-04-25T02:09:36;12.20;;;4.90;;
45784;SDS011;31489;51.404;5.474;2023-04-25T02:12:03;11.25;;;4.45;;
45784;SDS011;31489;51.404;5.474;2023-04-25T02:14:28;14.15;;;4.70;;
45784;SDS011;31489;51.404;5.474;2023-04-25T02:16:54;10.35;;;4.78;;
45784;SDS011;31489;51.404;5.474;2023-04-25T02:19:20;9.75;;;4.47;;
45784;SDS011;31489;51.404;5.474;2023-04-25T02:21:45;14.60;;;5.03;;
45784;SDS011;31489;51.404;5.474;2023-04-25T02:24:11;12.85;;;5.28;;
45784;SDS011;31489;51.404;5.474;2023-04-25T02:26:38;12.13;;;4.65;;
45784;SDS011;31489;51.404;5.474;2023-04-25T02:29:04;14.07;;;5.20;;
45784;SDS011;31489;51.404;5.474;2023-04-25T02:31:30;14.18;;;5.13;;
45784;SDS011;31489;51.404;5.474;2023-04-25T02:33:56;13.43;;;4.70;;
45784;SDS011;31489;51.404;5.474;2023-04-25T02:36:21;13.88;;;5.70;;
45784;SDS011;31489;51.404;5.474;2023-04-25T02:38:47;9.32;;;5.10;;
45784;SDS011;31489;51.404;5.474;2023-04-25T02:41:15;11.40;;;5.30;;
45784;SDS011;31489;51.404;5.474;2023-04-25T02:43:41;12.02;;;4.93;;
45784;SDS011;31489;51.404;5.474;2023-04-25T02:46:06;12.77;;;5.25;;
45784;SDS011;31489;51.404;5.474;2023-04-25T02:48:32;10.30;;;4.78;;
45784;SDS011;31489;51.404;5.474;2023-04-25T02:50:58;14.63;;;5.38;;
45784;SDS011;31489;51.404;5.474;2023-04-25T02:53:23;17.10;;;5.10;;
45784;SDS011;31489;51.404;5.474;2023-04-25T02:55:49;10.50;;;5.20;;
45784;SDS011;31489;51.404;5.474;2023-04-25T02:58:15;13.93;;;5.15;;
45784;SDS011;31489;51.404;5.474;2023-04-25T03:00:40;16.25;;;5.05;;
45784;SDS011;31489;51.404;5.474;2023-04-25T03:03:06;16.58;;;5.15;;
45784;SDS011;31489;51.404;5.474;2023-04-25T03:05:31;18.88;;;6.25;;
45784;SDS011;31489;51.404;5.474;2023-04-25T03:08:00;13.48;;;5.53;;
45784;SDS011;31489;51.404;5.474;2023-04-25T03:10:26;19.10;;;5.53;;
45784;SDS011;31489;51.404;5.474;2023-04-25T03:12:54;13.95;;;5.30;;
45784;SDS011;31489;51.404;5.474;2023-04-25T03:15:19;13.25;;;4.63;;
45784;SDS011;31489;51.404;5.474;2023-04-25T03:17:45;15.43;;;5.07;;
45784;SDS011;31489;51.404;5.474;2023-04-25T03:20:10;12.18;;;5.38;;
45784;SDS011;31489;51.404;5.474;2023-04-25T03:22:36;10.38;;;4.45;;
45784;SDS011;31489;51.404;5.474;2023-04-25T03:25:02;13.75;;;4.88;;
45784;SDS011;31489;51.404;5.474;2023-04-25T03:27:28;14.80;;;4.60;;
45784;SDS011;31489;51.404;5.474;2023-04-25T03:29:57;12.32;;;4.53;;
45784;SDS011;31489;51.404;5.474;2023-04-25T03:32:22;13.35;;;4.90;;
45784;SDS011;31489;51.404;5.474;2023-04-25T03:34:48;17.80;;;4.80;;
45784;SDS011;31489;51.404;5.474;2023-04-25T03:37:14;15.02;;;5.07;;
45784;SDS011;31489;51.404;5.474;2023-04-25T03:39:42;18.83;;;5.30;;
45784;SDS011;31489;51.404;5.474;2023-04-25T03:42:08;15.52;;;4.53;;
45784;SDS011;31489;51.404;5.474;2023-04-25T03:44:33;12.65;;;4.80;;
45784;SDS011;31489;51.404;5.474;2023-04-25T03:46:59;15.27;;;4.32;;
45784;SDS011;31489;51.404;5.474;2023-04-25T03:49:25;13.88;;;4.43;;
45784;SDS011;31489;51.404;5.474;2023-04-25T03:51:50;17.35;;;4.93;;
45784;SDS011;31489;51.404;5.474;2023-04-25T03:54:16;14.82;;;4.60;;
45784;SDS011;31489;51.404;5.474;2023-04-25T03:56:42;14.15;;;4.65;;
45784;SDS011;31489;51.404;5.474;2023-04-25T03:59:07;14.68;;;4.55;;
45784;SDS011;31489;51.404;5.474;2023-04-25T04:01:33;12.68;;;4.80;;
45784;SDS011;31489;51.404;5.474;2023-04-25T04:03:59;16.60;;;4.38;;
45784;SDS011;31489;51.404;5.474;2023-04-25T04:06:27;19.25;;;5.13;;
45784;SDS011;31489;51.404;5.474;2023-04-25T04:08:53;13.90;;;4.63;;
45784;SDS011;31489;51.404;5.474;2023-04-25T04:11:19;18.42;;;4.60;;
45784;SDS011;31489;51.404;5.474;2023-04-25T04:13:45;15.13;;;4.93;;
45784;SDS011;31489;51.404;5.474;2023-04-25T04:16:10;16.58;;;4.72;;
45784;SDS011;31489;51.404;5.474;2023-04-25T04:18:36;15.48;;;4.75;;
45784;SDS011;31489;51.404;5.474;2023-04-25T04:21:02;12.15;;;4.95;;
45784;SDS011;31489;51.404;5.474;2023-04-25T04:23:27;15.30;;;4.43;;
45784;SDS011;31489;51.404;5.474;2023-04-25T04:25:55;16.75;;;5.03;;
45784;SDS011;31489;51.404;5.474;2023-04-25T04:28:21;13.48;;;4.68;;
45784;SDS011;31489;51.404;5.474;2023-04-25T04:30:47;15.32;;;5.15;;
45784;SDS011;31489;51.404;5.474;2023-04-25T04:33:13;13.98;;;4.95;;
45784;SDS011;31489;51.404;5.474;2023-04-25T04:35:40;16.33;;;5.00;;
45784;SDS011;31489;51.404;5.474;2023-04-25T04:38:06;16.20;;;6.47;;
45784;SDS011;31489;51.404;5.474;2023-04-25T04:40:32;17.38;;;5.55;;
45784;SDS011;31489;51.404;5.474;2023-04-25T04:42:58;14.27;;;6.03;;
45784;SDS011;31489;51.404;5.474;2023-04-25T04:45:23;15.88;;;5.78;;
45784;SDS011;31489;51.404;5.474;2023-04-25T04:47:52;18.88;;;4.90;;
45784;SDS011;31489;51.404;5.474;2023-04-25T04:50:20;13.52;;;5.18;;
45784;SDS011;31489;51.404;5.474;2023-04-25T04:52:45;17.52;;;5.10;;
45784;SDS011;31489;51.404;5.474;2023-04-25T04:55:11;16.42;;;5.30;;
45784;SDS011;31489;51.404;5.474;2023-04-25T04:57:37;16.35;;;4.85;;
45784;SDS011;31489;51.404;5.474;2023-04-25T05:00:03;14.32;;;4.88;;
45784;SDS011;31489;51.404;5.474;2023-04-25T05:02:31;15.20;;;5.40;;
45784;SDS011;31489;51.404;5.474;2023-04-25T05:04:57;12.00;;;5.13;;
45784;SDS011;31489;51.404;5.474;2023-04-25T05:07:22;13.57;;;5.05;;
45784;SDS011;31489;51.404;5.474;2023-04-25T05:09:48;13.30;;;4.40;;
45784;SDS011;31489;51.404;5.474;2023-04-25T05:12:14;14.50;;;4.85;;
45784;SDS011;31489;51.404;5.474;2023-04-25T05:14:39;11.00;;;4.35;;
45784;SDS011;31489;51.404;5.474;2023-04-25T05:17:05;14.82;;;4.45;;
45784;SDS011;31489;51.404;5.474;2023-04-25T05:19:33;13.50;;;5.00;;
45784;SDS011;31489;51.404;5.474;2023-04-25T05:21:59;13.60;;;4.40;;
45784;SDS011;31489;51.404;5.474;2023-04-25T05:24:24;16.70;;;4.75;;
45784;SDS011;31489;51.404;5.474;2023-04-25T05:26:50;13.70;;;4.40;;
45784;SDS011;31489;51.404;5.474;2023-04-25T05:29:16;18.75;;;4.68;;
45784;SDS011;31489;51.404;5.474;2023-04-25T05:31:41;16.02;;;4.72;;
45784;SDS011;31489;51.404;5.474;2023-04-25T05:34:07;21.08;;;4.72;;
45784;SDS011;31489;51.404;5.474;2023-04-25T05:36:32;13.70;;;4.45;;
45784;SDS011;31489;51.404;5.474;2023-04-25T05:38:58;16.60;;;4.63;;
45784;SDS011;31489;51.404;5.474;2023-04-25T05:41:23;14.15;;;4.40;;
45784;SDS011;31489;51.404;5.474;2023-04-25T05:43:49;13.77;;;4.82;;
45784;SDS011;31489;51.404;5.474;2023-04-25T05:46:15;11.05;;;4.00;;
45784;SDS011;31489;51.404;5.474;2023-04-25T05:48:42;12.70;;;3.75;;
45784;SDS011;31489;51.404;5.474;2023-04-25T05:51:07;19.50;;;3.92;;
45784;SDS011;31489;51.404;5.474;2023-04-25T05:53:33;14.32;;;4.43;;
45784;SDS011;31489;51.404;5.474;2023-04-25T05:55:59;14.35;;;4.57;;
45784;SDS011;31489;51.404;5.474;2023-04-25T05:58:24;14.77;;;4.10;;
45784;SDS011;31489;51.404;5.474;2023-04-25T06:00:53;15.98;;;4.47;;
45784;SDS011;31489;51.404;5.474;2023-04-25T06:03:19;13.98;;;4.47;;
45784;SDS011;31489;51.404;5.474;2023-04-25T06:05:45;13.35;;;3.95;;
45784;SDS011;31489;51.404;5.474;2023-04-25T06:08:14;15.65;;;4.18;;
45784;SDS011;31489;51.404;5.474;2023-04-25T06:10:39;10.80;;;3.97;;
45784;SDS011;31489;51.404;5.474;2023-04-25T06:13:05;14.05;;;4.60;;
45784;SDS011;31489;51.404;5.474;2023-04-25T06:15:31;14.10;;;4.20;;
45784;SDS011;31489;51.404;5.474;2023-04-25T06:18:01;20.30;;;4.90;;
45784;SDS011;31489;51.404;5.474;2023-04-25T06:20:27;14.75;;;4.32;;
45784;SDS011;31489;51.404;5.474;2023-04-25T06:22:52;13.07;;;4.10;;
45784;SDS011;31489;51.404;5.474;2023-04-25T06:25:18;16.05;;;4.40;;
45784;SDS011;31489;51.404;5.474;2023-04-25T06:27:43;10.68;;;3.75;;
45784;SDS011;31489;51.404;5.474;2023-04-25T06:30:09;14.27;;;4.70;;
45784;SDS011;31489;51.404;5.474;2023-04-25T06:32:37;14.88;;;4.60;;
45784;SDS011;31489;51.404;5.474;2023-04-25T06:35:03;16.73;;;4.53;;
45784;SDS011;31489;51.404;5.474;2023-04-25T06:37:29;14.82;;;4.45;;
45784;SDS011;31489;51.404;5.474;2023-04-25T06:39:58;14.43;;;4.50;;
45784;SDS011;31489;51.404;5.474;2023-04-25T06:42:23;9.57;;;3.90;;
45784;SDS011;31489;51.404;5.474;2023-04-25T06:44:49;11.38;;;3.75;;
45784;SDS011;31489;51.404;5.474;2023-04-25T06:47:15;11.82;;;3.80;;
45784;SDS011;31489;51.404;5.474;2023-04-25T06:49:40;13.85;;;4.95;;
45784;SDS011;31489;51.404;5.474;2023-04-25T06:52:07;10.23;;;4.38;;
45784;SDS011;31489;51.404;5.474;2023-04-25T06:54:32;11.20;;;3.92;;
45784;SDS011;31489;51.404;5.474;2023-04-25T06:56:58;12.20;;;3.22;;
45784;SDS011;31489;51.404;5.474;2023-04-25T06:59:25;11.38;;;3.20;;
45784;SDS011;31489;51.404;5.474;2023-04-25T07:01:51;8.75;;;3.42;;
45784;SDS011;31489;51.404;5.474;2023-04-25T07:04:20;12.00;;;2.83;;
45784;SDS011;31489;51.404;5.474;2023-04-25T07:06:48;10.90;;;2.92;;
45784;SDS011;31489;51.404;5.474;2023-04-25T07:09:14;6.82;;;2.65;;
45784;SDS011;31489;51.404;5.474;2023-04-25T07:11:40;10.63;;;2.92;;
45784;SDS011;31489;51.404;5.474;2023-04-25T07:14:06;7.30;;;2.25;;
45784;SDS011;31489;51.404;5.474;2023-04-25T07:16:31;9.77;;;2.33;;
45784;SDS011;31489;51.404;5.474;2023-04-25T07:18:57;8.65;;;2.42;;
45784;SDS011;31489;51.404;5.474;2023-04-25T07:21:22;8.82;;;2.50;;
45784;SDS011;31489;51.404;5.474;2023-04-25T07:23:48;9.40;;;2.30;;
45784;SDS011;31489;51.404;5.474;2023-04-25T07:26:14;8.75;;;2.33;;
45784;SDS011;31489;51.404;5.474;2023-04-25T07:28:39;10.38;;;2.25;;
45784;SDS011;31489;51.404;5.474;2023-04-25T07:31:05;13.63;;;2.63;;
45784;SDS011;31489;51.404;5.474;2023-04-25T07:33:30;8.63;;;2.10;;
45784;SDS011;31489;51.404;5.474;2023-04-25T07:35:56;5.22;;;1.70;;
45784;SDS011;31489;51.404;5.474;2023-04-25T07:38:22;9.43;;;1.60;;
45784;SDS011;31489;51.404;5.474;2023-04-25T07:40:48;6.93;;;1.80;;
45784;SDS011;31489;51.404;5.474;2023-04-25T07:43:14;10.18;;;1.98;;
45784;SDS011;31489;51.404;5.474;2023-04-25T07:45:42;4.05;;;1.50;;
45784;SDS011;31489;51.404;5.474;2023-04-25T07:48:08;8.02;;;1.88;;
45784;SDS011;31489;51.404;5.474;2023-04-25T07:50:36;10.88;;;1.92;;
45784;SDS011;31489;51.404;5.474;2023-04-25T07:53:02;7.63;;;1.73;;
45784;SDS011;31489;51.404;5.474;2023-04-25T07:55:28;9.40;;;1.60;;
45784;SDS011;31489;51.404;5.474;2023-04-25T07:57:56;7.63;;;1.80;;
45784;SDS011;31489;51.404;5.474;2023-04-25T08:00:22;9.57;;;2.05;;
45784;SDS011;31489;51.404;5.474;2023-04-25T08:02:47;10.32;;;2.17;;
45784;SDS011;31489;51.404;5.474;2023-04-25T08:05:13;4.93;;;1.55;;
45784;SDS011;31489;51.404;5.474;2023-04-25T08:07:40;5.80;;;1.80;;
45784;SDS011;31489;51.404;5.474;2023-04-25T08:10:06;6.03;;;2.05;;
45784;SDS011;31489;51.404;5.474;2023-04-25T08:12:33;7.15;;;1.90;;
45784;SDS011;31489;51.404;5.474;2023-04-25T08:15:01;6.95;;;2.20;;
45784;SDS011;31489;51.404;5.474;2023-04-25T08:17:27;8.50;;;2.10;;
45784;SDS011;31489;51.404;5.474;2023-04-25T08:19:56;6.22;;;1.50;;
45784;SDS011;31489;51.404;5.474;2023-04-25T08:22:22;10.55;;;2.10;;
45784;SDS011;31489;51.404;5.474;2023-04-25T08:24:47;5.45;;;2.03;;
45784;SDS011;31489;51.404;5.474;2023-04-25T08:27:13;8.75;;;2.28;;
45784;SDS011;31489;51.404;5.474;2023-04-25T08:29:39;5.00;;;2.53;;
45784;SDS011;31489;51.404;5.474;2023-04-25T08:32:05;6.82;;;1.80;;
45784;SDS011;31489;51.404;5.474;2023-04-25T08:34:30;4.20;;;1.73;;
45784;SDS011;31489;51.404;5.474;2023-04-25T08:36:56;8.60;;;2.08;;
45784;SDS011;31489;51.404;5.474;2023-04-25T08:39:21;6.80;;;2.03;;
45784;SDS011;31489;51.404;5.474;2023-04-25T08:41:47;9.50;;;2.03;;
45784;SDS011;31489;51.404;5.474;2023-04-25T08:44:13;9.32;;;2.10;;
45784;SDS011;31489;51.404;5.474;2023-04-25T08:46:40;10.70;;;2.42;;
45784;SDS011;31489;51.404;5.474;2023-04-25T08:49:06;7.28;;;1.67;;
45784;SDS011;31489;51.404;5.474;2023-04-25T08:51:34;10.05;;;2.53;;
45784;SDS011;31489;51.404;5.474;2023-04-25T08:54:08;10.63;;;2.20;;
45784;SDS011;31489;51.404;5.474;2023-04-25T08:56:37;9.27;;;2.35;;
45784;SDS011;31489;51.404;5.474;2023-04-25T08:59:05;12.10;;;2.30;;
45784;SDS011;31489;51.404;5.474;2023-04-25T09:01:33;5.22;;;1.55;;
45784;SDS011;31489;51.404;5.474;2023-04-25T09:04:00;8.18;;;1.98;;
45784;SDS011;31489;51.404;5.474;2023-04-25T09:06:27;6.25;;;1.73;;
45784;SDS011;31489;51.404;5.474;2023-04-25T09:08:53;6.80;;;1.90;;
45784;SDS011;31489;51.404;5.474;2023-04-25T09:11:19;6.88;;;1.77;;
45784;SDS011;31489;51.404;5.474;2023-04-25T09:13:45;6.45;;;1.92;;
45784;SDS011;31489;51.404;5.474;2023-04-25T09:16:11;5.50;;;1.63;;
45784;SDS011;31489;51.404;5.474;2023-04-25T09:18:36;7.05;;;1.58;;
45784;SDS011;31489;51.404;5.474;2023-04-25T09:21:09;7.15;;;1.67;;
45784;SDS011;31489;51.404;5.474;2023-04-25T09:23:54;7.68;;;3.20;;
45784;SDS011;31489;51.404;5.474;2023-04-25T09:26:20;4.88;;;1.63;;
45784;SDS011;31489;51.404;5.474;2023-04-25T09:28:48;6.32;;;1.83;;
45784;SDS011;31489;51.404;5.474;2023-04-25T09:31:30;5.18;;;1.55;;
45784;SDS011;31489;51.404;5.474;2023-04-25T09:33:58;6.90;;;1.80;;
45784;SDS011;31489;51.404;5.474;2023-04-25T09:36:29;5.55;;;1.77;;
45784;SDS011;31489;51.404;5.474;2023-04-25T09:38:55;6.88;;;1.50;;
45784;SDS011;31489;51.404;5.474;2023-04-25T09:41:24;7.93;;;1.83;;
45784;SDS011;31489;51.404;5.474;2023-04-25T09:43:50;8.38;;;1.95;;
45784;SDS011;31489;51.404;5.474;2023-04-25T09:46:16;6.53;;;1.83;;
45784;SDS011;31489;51.404;5.474;2023-04-25T09:48:52;7.22;;;2.20;;
45784;SDS011;31489;51.404;5.474;2023-04-25T09:51:18;7.20;;;1.90;;
45784;SDS011;31489;51.404;5.474;2023-04-25T09:53:45;6.13;;;1.55;;
45784;SDS011;31489;51.404;5.474;2023-04-25T09:56:14;4.07;;;1.58;;
45784;SDS011;31489;51.404;5.474;2023-04-25T09:58:41;5.60;;;1.63;;
45784;SDS011;31489;51.404;5.474;2023-04-25T10:01:08;6.85;;;1.77;;
45784;SDS011;31489;51.404;5.474;2023-04-25T10:03:35;6.90;;;1.95;;
45784;SDS011;31489;51.404;5.474;2023-04-25T10:06:08;5.40;;;1.50;;
45784;SDS011;31489;51.404;5.474;2023-04-25T10:08:39;4.07;;;2.00;;
45784;SDS011;31489;51.404;5.474;2023-04-25T10:11:07;8.40;;;1.85;;
45784;SDS011;31489;51.404;5.474;2023-04-25T10:13:34;5.53;;;1.48;;
45784;SDS011;31489;51.404;5.474;2023-04-25T10:16:03;5.28;;;2.13;;
45784;SDS011;31489;51.404;5.474;2023-04-25T10:18:30;7.32;;;1.73;;
45784;SDS011;31489;51.404;5.474;2023-04-25T10:21:00;7.50;;;1.70;;
45784;SDS011;31489;51.404;5.474;2023-04-25T10:23:30;3.25;;;1.35;;
45784;SDS011;31489;51.404;5.474;2023-04-25T10:25:56;5.55;;;1.70;;
45784;SDS011;31489;51.404;5.474;2023-04-25T10:28:29;5.25;;;1.75;;
45784;SDS011;31489;51.404;5.474;2023-04-25T10:31:04;7.50;;;1.80;;
45784;SDS011;31489;51.404;5.474;2023-04-25T10:33:33;10.75;;;1.80;;
45784;SDS011;31489;51.404;5.474;2023-04-25T10:36:08;4.28;;;1.73;;
45784;SDS011;31489;51.404;5.474;2023-04-25T10:38:42;5.03;;;1.77;;
45784;SDS011;31489;51.404;5.474;2023-04-25T10:41:09;2.83;;;1.38;;
45784;SDS011;31489;51.404;5.474;2023-04-25T10:43:40;7.07;;;1.40;;
45784;SDS011;31489;51.404;5.474;2023-04-25T10:48:48;3.33;;;1.40;;
45784;SDS011;31489;51.404;5.474;2023-04-25T10:51:27;4.88;;;1.50;;
45784;SDS011;31489;51.404;5.474;2023-04-25T10:54:04;3.90;;;1.40;;
45784;SDS011;31489;51.404;5.474;2023-04-25T10:56:38;3.78;;;1.25;;
45784;SDS011;31489;51.404;5.474;2023-04-25T10:59:16;3.45;;;1.35;;
45784;SDS011;31489;51.404;5.474;2023-04-25T11:01:46;7.47;;;1.40;;
45784;SDS011;31489;51.404;5.474;2023-04-25T11:04:23;3.75;;;1.55;;
45784;SDS011;31489;51.404;5.474;2023-04-25T11:09:27;7.38;;;1.50;;
45784;SDS011;31489;51.404;5.474;2023-04-25T11:11:54;5.22;;;1.42;;
45784;SDS011;31489;51.404;5.474;2023-04-25T11:14:20;4.63;;;1.40;;
45784;SDS011;31489;51.404;5.474;2023-04-25T11:16:46;5.03;;;1.83;;
45784;SDS011;31489;51.404;5.474;2023-04-25T11:19:12;4.40;;;1.42;;
45784;SDS011;31489;51.404;5.474;2023-04-25T11:21:38;6.18;;;1.77;;
45784;SDS011;31489;51.404;5.474;2023-04-25T11:24:04;6.50;;;1.65;;
45784;SDS011;31489;51.404;5.474;2023-04-25T11:26:32;6.43;;;1.80;;
45784;SDS011;31489;51.404;5.474;2023-04-25T11:28:58;7.57;;;1.58;;
45784;SDS011;31489;51.404;5.474;2023-04-25T11:31:28;6.60;;;1.65;;
45784;SDS011;31489;51.404;5.474;2023-04-25T11:33:56;4.25;;;1.50;;
45784;SDS011;31489;51.404;5.474;2023-04-25T11:36:23;5.20;;;1.75;;
45784;SDS011;31489;51.404;5.474;2023-04-25T11:38:53;5.45;;;1.70;;
45784;SDS011;31489;51.404;5.474;2023-04-25T11:41:19;5.95;;;2.00;;
45784;SDS011;31489;51.404;5.474;2023-04-25T11:43:47;6.07;;;2.10;;
45784;SDS011;31489;51.404;5.474;2023-04-25T11:46:13;6.20;;;1.65;;
45784;SDS011;31489;51.404;5.474;2023-04-25T11:48:39;7.63;;;1.67;;
45784;SDS011;31489;51.404;5.474;2023-04-25T11:51:06;4.45;;;1.50;;
45784;SDS011;31489;51.404;5.474;2023-04-25T11:53:32;8.05;;;1.75;;
45784;SDS011;31489;51.404;5.474;2023-04-25T11:55:58;6.65;;;1.60;;
45784;SDS011;31489;51.404;5.474;2023-04-25T11:58:24;8.82;;;1.58;;
45784;SDS011;31489;51.404;5.474;2023-04-25T12:00:50;6.40;;;2.03;;
45784;SDS011;31489;51.404;5.474;2023-04-25T12:03:17;5.22;;;1.80;;
45784;SDS011;31489;51.404;5.474;2023-04-25T12:05:44;3.33;;;1.55;;
45784;SDS011;31489;51.404;5.474;2023-04-25T12:08:11;7.40;;;1.70;;
45784;SDS011;31489;51.404;5.474;2023-04-25T12:10:38;5.68;;;1.60;;
45784;SDS011;31489;51.404;5.474;2023-04-25T12:13:21;5.55;;;1.50;;
45784;SDS011;31489;51.404;5.474;2023-04-25T12:15:49;5.10;;;1.42;;
45784;SDS011;31489;51.404;5.474;2023-04-25T12:18:14;4.20;;;1.30;;
45784;SDS011;31489;51.404;5.474;2023-04-25T12:20:43;4.07;;;1.30;;
45784;SDS011;31489;51.404;5.474;2023-04-25T12:23:09;5.55;;;1.30;;
45784;SDS011;31489;51.404;5.474;2023-04-25T12:25:44;5.93;;;1.50;;
45784;SDS011;31489;51.404;5.474;2023-04-25T12:28:16;3.00;;;1.23;;
45784;SDS011;31489;51.404;5.474;2023-04-25T12:33:25;3.50;;;1.67;;
45784;SDS011;31489;51.404;5.474;2023-04-25T12:35:52;4.63;;;1.30;;
45784;SDS011;31489;51.404;5.474;2023-04-25T12:38:25;4.43;;;1.38;;
45784;SDS011;31489;51.404;5.474;2023-04-25T12:40:54;6.90;;;1.33;;
45784;SDS011;31489;51.404;5.474;2023-04-25T12:43:20;3.20;;;1.40;;
45784;SDS011;31489;51.404;5.474;2023-04-25T12:45:50;4.82;;;1.45;;
45784;SDS011;31489;51.404;5.474;2023-04-25T12:48:16;5.57;;;1.25;;
45784;SDS011;31489;51.404;5.474;2023-04-25T12:50:42;3.30;;;1.10;;
45784;SDS011;31489;51.404;5.474;2023-04-25T12:53:09;5.70;;;1.40;;
45784;SDS011;31489;51.404;5.474;2023-04-25T12:55:37;3.65;;;1.20;;
45784;SDS011;31489;51.404;5.474;2023-04-25T12:58:02;3.78;;;0.90;;
45784;SDS011;31489;51.404;5.474;2023-04-25T13:00:28;3.63;;;1.00;;
45784;SDS011;31489;51.404;5.474;2023-04-25T13:02:55;3.65;;;1.23;;
45784;SDS011;31489;51.404;5.474;2023-04-25T13:05:24;3.78;;;1.08;;
45784;SDS011;31489;51.404;5.474;2023-04-25T13:07:50;2.67;;;1.23;;
45784;SDS011;31489;51.404;5.474;2023-04-25T13:10:16;4.93;;;1.05;;
45784;SDS011;31489;51.404;5.474;2023-04-25T13:12:43;3.60;;;1.23;;
45784;SDS011;31489;51.404;5.474;2023-04-25T13:15:14;3.50;;;1.05;;
45784;SDS011;31489;51.404;5.474;2023-04-25T13:17:40;3.63;;;1.33;;
45784;SDS011;31489;51.404;5.474;2023-04-25T13:20:06;3.15;;;0.98;;
45784;SDS011;31489;51.404;5.474;2023-04-25T13:22:37;3.47;;;1.30;;
45784;SDS011;31489;51.404;5.474;2023-04-25T13:25:07;4.30;;;1.27;;
45784;SDS011;31489;51.404;5.474;2023-04-25T13:27:34;2.63;;;1.10;;
45784;SDS011;31489;51.404;5.474;2023-04-25T13:30:00;4.65;;;1.30;;
45784;SDS011;31489;51.404;5.474;2023-04-25T13:32:32;4.47;;;1.30;;
45784;SDS011;31489;51.404;5.474;2023-04-25T13:35:04;2.90;;;1.35;;
45784;SDS011;31489;51.404;5.474;2023-04-25T13:37:31;6.07;;;1.30;;
45784;SDS011;31489;51.404;5.474;2023-04-25T13:40:04;3.28;;;1.23;;
45784;SDS011;31489;51.404;5.474;2023-04-25T13:42:32;7.28;;;1.67;;
45784;SDS011;31489;51.404;5.474;2023-04-25T13:44:58;3.75;;;1.20;;
45784;SDS011;31489;51.404;5.474;2023-04-25T13:47:25;2.33;;;1.17;;
45784;SDS011;31489;51.404;5.474;2023-04-25T13:49:51;4.97;;;1.20;;
45784;SDS011;31489;51.404;5.474;2023-04-25T13:52:17;5.40;;;1.50;;
45784;SDS011;31489;51.404;5.474;2023-04-25T13:54:43;3.85;;;1.10;;
45784;SDS011;31489;51.404;5.474;2023-04-25T13:57:08;3.60;;;1.17;;
45784;SDS011;31489;51.404;5.474;2023-04-25T13:59:36;2.90;;;1.13;;
45784;SDS011;31489;51.404;5.474;2023-04-25T14:02:02;8.02;;;1.88;;
45784;SDS011;31489;51.404;5.474;2023-04-25T14:04:28;4.32;;;1.30;;
45784;SDS011;31489;51.404;5.474;2023-04-25T14:06:54;3.58;;;1.10;;
45784;SDS011;31489;51.404;5.474;2023-04-25T14:09:21;3.42;;;1.20;;
45784;SDS011;31489;51.404;5.474;2023-04-25T14:11:50;3.80;;;1.42;;
45784;SDS011;31489;51.404;5.474;2023-04-25T14:14:17;5.20;;;1.35;;
45784;SDS011;31489;51.404;5.474;2023-04-25T14:16:43;6.93;;;1.35;;
45784;SDS011;31489;51.404;5.474;2023-04-25T14:19:09;3.05;;;1.08;;
45784;SDS011;31489;51.404;5.474;2023-04-25T14:21:35;4.20;;;1.13;;
45784;SDS011;31489;51.404;5.474;2023-04-25T14:24:03;3.60;;;1.27;;
45784;SDS011;31489;51.404;5.474;2023-04-25T14:26:29;3.65;;;1.35;;
45784;SDS011;31489;51.404;5.474;2023-04-25T14:28:55;4.40;;;1.50;;
45784;SDS011;31489;51.404;5.474;2023-04-25T14:31:21;6.78;;;1.63;;
45784;SDS011;31489;51.404;5.474;2023-04-25T14:33:47;6.28;;;1.45;;
45784;SDS011;31489;51.404;5.474;2023-04-25T14:36:12;3.20;;;1.13;;
45784;SDS011;31489;51.404;5.474;2023-04-25T14:38:45;3.50;;;1.25;;
45784;SDS011;31489;51.404;5.474;2023-04-25T14:41:16;6.35;;;1.42;;
45784;SDS011;31489;51.404;5.474;2023-04-25T14:43:48;3.17;;;1.23;;
45784;SDS011;31489;51.404;5.474;2023-04-25T14:46:17;6.18;;;1.42;;